Time;durP1;ratioP1;P1;durP2;ratioP2;P2;SDS_P1;SDS_P2;PMS_P1;PMS_P2;Temp;Humidity;BMP_temperature;BMP_pressure;BME280_temperature;BME280_humidity;BME280_pressure;Samples;Min_cycle;Max_cycle;Signal;HPM_P1;HPM_P2
2022/06/15 00:01:29;;;;;;;;;;;14.10;99.90;;;;;;5096229;28;19915;-79
2022/06/15 00:03:54;;;;;;;;;;;14.00;99.90;;;;;;5114563;28;19920;-79
2022/06/15 00:06:25;;;;;;;;;;;14.00;99.90;;;;;;5114534;28;20015;-79
2022/06/15 00:08:52;;;;;;;;;;;14.00;99.90;;;;;;5114690;28;19912;-78
2022/06/15 00:11:22;;;;;;;;;;;13.90;99.90;;;;;;5114296;28;19907;-79
2022/06/15 00:13:48;;;;;;;;;;;13.90;99.90;;;;;;5114605;28;19915;-79
2022/06/15 00:16:14;;;;;;;;;;;13.80;99.90;;;;;;5096189;28;19908;-80
2022/06/15 00:18:40;;;;;;;;;;;13.70;99.90;;;;;;5095786;28;19918;-79
2022/06/15 00:21:06;;;;;;;;;;;13.70;99.90;;;;;;5114340;28;19958;-80
2022/06/15 00:23:32;;;;;;;;;;;13.70;99.90;;;;;;5114103;28;20352;-81
2022/06/15 00:25:58;;;;;;;;;;;13.70;99.90;;;;;;5114134;28;19908;-79
2022/06/15 00:28:25;;;;;;;;;;;13.70;99.90;;;;;;5095917;28;19950;-80
2022/06/15 00:30:50;;;;;;;;;;;13.70;99.90;;;;;;5114197;28;19918;-80
2022/06/15 00:33:19;;;;;;;;;;;13.80;99.90;;;;;;5095999;28;19912;-81
2022/06/15 00:35:57;;;;;;;;;;;13.80;99.90;;;;;;5113976;28;19926;-78
2022/06/15 00:38:24;;;;;;;;;;;13.80;99.90;;;;;;5095514;28;19908;-80
2022/06/15 00:40:49;;;;;;;;;;;13.70;99.90;;;;;;5095531;28;19904;-80
2022/06/15 00:43:27;;;;;;;;;;;13.70;99.90;;;;;;5113998;28;20301;-79
2022/06/15 00:45:53;;;;;;;;;;;13.70;99.90;;;;;;5113840;28;19966;-80
2022/06/15 00:48:18;;;;;;;;;;;13.70;99.90;;;;;;5095520;28;19947;-79
2022/06/15 00:50:44;;;;;;;;;;;13.70;99.90;;;;;;5095534;28;19907;-80
2022/06/15 00:53:09;;;;;;;;;;;13.70;99.90;;;;;;5113496;28;19912;-80
2022/06/15 00:55:35;;;;;;;;;;;13.70;99.90;;;;;;5095600;28;19908;-80
2022/06/15 00:58:01;;;;;;;;;;;13.60;99.90;;;;;;5095199;28;19904;-79
2022/06/15 01:00:27;;;;;;;;;;;13.60;99.90;;;;;;5095162;28;19912;-80
2022/06/15 01:02:53;;;;;;;;;;;13.60;99.90;;;;;;5113479;28;19920;-80
2022/06/15 01:05:18;;;;;;;;;;;13.50;99.90;;;;;;5112792;28;19919;-80
2022/06/15 01:07:50;;;;;;;;;;;13.50;99.90;;;;;;5113318;28;19907;-79
2022/06/15 01:10:34;;;;;;;;;;;13.50;99.90;;;;;;5113418;28;19908;-79
2022/06/15 01:13:15;;;;;;;;;;;13.40;99.90;;;;;;5095028;28;19964;-79
2022/06/15 01:15:48;;;;;;;;;;;13.40;99.90;;;;;;5094779;28;19915;-80
2022/06/15 01:18:23;;;;;;;;;;;13.40;99.90;;;;;;5094889;28;19911;-79
2022/06/15 01:20:48;;;;;;;;;;;13.40;99.90;;;;;;5094741;28;19912;-79
2022/06/15 01:23:25;;;;;;;;;;;13.40;99.90;;;;;;5113100;28;19920;-80
2022/06/15 01:26:03;;;;;;;;;;;13.40;99.90;;;;;;5112988;28;19960;-80
2022/06/15 01:28:44;;;;;;;;;;;13.40;99.90;;;;;;5094885;28;19951;-79
2022/06/15 01:31:16;;;;;;;;;;;11.80;99.90;;;;;;5113058;28;19969;-80
2022/06/15 01:33:44;;;;;;;;;;;13.10;99.90;;;;;;5112911;28;20200;-79
2022/06/15 01:36:14;;;;;;;;;;;13.10;99.90;;;;;;5094387;28;19918;-80
2022/06/15 01:38:46;;;;;;;;;;;13.10;99.90;;;;;;5112680;28;19912;-80
2022/06/15 01:41:21;;;;;;;;;;;13.20;99.90;;;;;;5094607;28;19908;-80
2022/06/15 01:59:39;;;;;;;;;;;13.00;99.90;;;;;;5092399;28;19927;-79
2022/06/15 02:02:08;;;;;;;;;;;13.00;99.90;;;;;;5074152;28;19912;-80
2022/06/15 02:04:45;;;;;;;;;;;13.20;99.90;;;;;;5074137;28;19924;-79
2022/06/15 02:07:17;;;;;;;;;;;13.00;99.90;;;;;;5092266;28;19919;-81
2022/06/15 02:09:42;;;;;;;;;;;13.00;99.90;;;;;;5074092;28;19916;-79
2022/06/15 02:12:08;;;;;;;;;;;12.90;99.90;;;;;;5092253;28;19908;-79
2022/06/15 02:14:40;;;;;;;;;;;12.90;99.90;;;;;;5091801;28;19908;-79
2022/06/15 02:17:27;;;;;;;;;;;12.70;99.90;;;;;;5093673;28;20046;-79
2022/06/15 02:19:56;;;;;;;;;;;12.70;99.90;;;;;;5096191;28;19918;-80
2022/06/15 02:22:23;;;;;;;;;;;12.70;99.90;;;;;;5095824;28;20026;-79
2022/06/15 02:24:51;;;;;;;;;;;12.60;99.90;;;;;;5077885;28;19912;-79
2022/06/15 02:27:18;;;;;;;;;;;12.60;99.90;;;;;;5078032;28;19965;-80
2022/06/15 02:29:45;;;;;;;;;;;12.60;99.90;;;;;;5095965;28;19908;-79
2022/06/15 02:32:11;;;;;;;;;;;12.60;99.90;;;;;;5095989;28;19915;-79
2022/06/15 02:34:37;;;;;;;;;;;12.50;99.90;;;;;;5096252;28;19973;-78
2022/06/15 02:37:05;;;;;;;;;;;12.40;99.90;;;;;;5095573;28;20447;-79
2022/06/15 02:39:30;;;;;;;;;;;12.40;99.90;;;;;;5077539;28;19908;-79
2022/06/15 02:42:20;;;;;;;;;;;12.40;99.90;;;;;;5077578;28;19915;-79
2022/06/15 02:44:47;;;;;;;;;;;12.30;99.90;;;;;;5077512;28;19923;-80
2022/06/15 02:47:13;;;;;;;;;;;12.30;99.90;;;;;;5095623;28;19915;-79
2022/06/15 02:49:39;;;;;;;;;;;12.30;99.90;;;;;;5077463;28;19962;-79
2022/06/15 02:52:05;;;;;;;;;;;12.30;99.90;;;;;;5095795;28;19908;-79
2022/06/15 02:54:51;;;;;;;;;;;12.30;99.90;;;;;;5095585;28;19962;-79
2022/06/15 02:57:18;;;;;;;;;;;12.30;99.90;;;;;;5095362;28;20315;-79
2022/06/15 02:59:45;;;;;;;;;;;12.40;99.90;;;;;;5077448;28;19919;-79
2022/06/15 03:02:14;;;;;;;;;;;12.40;99.90;;;;;;5095617;28;19905;-80
2022/06/15 03:04:41;;;;;;;;;;;12.40;99.90;;;;;;5095634;28;20508;-79
2022/06/15 03:07:06;;;;;;;;;;;12.40;99.90;;;;;;5077229;28;19931;-80
2022/06/15 03:09:32;;;;;;;;;;;12.40;99.90;;;;;;5095415;28;19912;-79
2022/06/15 03:11:57;;;;;;;;;;;12.50;99.90;;;;;;5110985;28;20378;-79
2022/06/15 03:14:23;;;;;;;;;;;12.50;99.90;;;;;;5110909;28;19914;-79
2022/06/15 03:16:49;;;;;;;;;;;12.40;99.90;;;;;;5095175;28;19908;-79
2022/06/15 03:19:15;;;;;;;;;;;12.30;99.90;;;;;;5095170;28;19912;-79
2022/06/15 03:21:40;;;;;;;;;;;12.30;99.90;;;;;;5095317;28;19968;-80
2022/06/15 03:24:06;;;;;;;;;;;12.30;99.90;;;;;;5077040;28;19922;-79
2022/06/15 03:26:32;;;;;;;;;;;12.30;99.90;;;;;;5076903;28;19908;-79
2022/06/15 03:28:58;;;;;;;;;;;12.40;99.90;;;;;;5076449;28;19908;-79
2022/06/15 03:31:23;;;;;;;;;;;12.40;99.90;;;;;;5095125;28;20248;-79
2022/06/15 03:33:49;;;;;;;;;;;12.40;99.90;;;;;;5110778;28;19908;-80
2022/06/15 03:36:14;;;;;;;;;;;12.40;99.90;;;;;;5094793;28;19956;-80
2022/06/15 03:38:40;;;;;;;;;;;12.40;99.90;;;;;;5110400;28;20512;-79
2022/06/15 03:41:05;;;;;;;;;;;12.50;99.90;;;;;;5094724;28;19912;-79
2022/06/15 03:43:32;;;;;;;;;;;12.50;99.90;;;;;;5094727;28;20383;-80
2022/06/15 03:45:57;;;;;;;;;;;12.60;99.90;;;;;;5094663;28;19908;-80
2022/06/15 03:48:23;;;;;;;;;;;12.60;99.90;;;;;;5094701;28;20320;-80
2022/06/15 03:50:49;;;;;;;;;;;12.60;99.90;;;;;;5076222;28;19915;-80
2022/06/15 03:53:14;;;;;;;;;;;12.60;99.90;;;;;;5076227;28;19925;-80
2022/06/15 03:55:40;;;;;;;;;;;12.60;99.90;;;;;;5094455;28;19919;-80
2022/06/15 03:58:06;;;;;;;;;;;12.60;99.90;;;;;;5076194;28;19920;-80
2022/06/15 04:00:32;;;;;;;;;;;12.60;99.90;;;;;;5094254;28;20382;-78
2022/06/15 04:02:58;;;;;;;;;;;12.70;99.90;;;;;;5094258;28;19919;-79
2022/06/15 04:05:27;;;;;;;;;;;12.70;99.90;;;;;;5094453;28;20002;-79
2022/06/15 04:10:37;;;;;;;;;;;12.80;99.90;;;;;;5094645;28;19923;-80
2022/06/15 04:13:03;;;;;;;;;;;12.80;99.90;;;;;;5094185;28;19908;-79
2022/06/15 04:15:29;;;;;;;;;;;12.80;99.90;;;;;;5075949;28;19931;-79
2022/06/15 04:17:54;;;;;;;;;;;12.90;99.90;;;;;;5093903;28;19912;-79
2022/06/15 04:20:34;;;;;;;;;;;12.90;99.90;;;;;;5094045;28;19908;-79
2022/06/15 04:23:02;;;;;;;;;;;12.90;99.90;;;;;;5075722;28;19924;-79
2022/06/15 04:25:29;;;;;;;;;;;13.00;99.90;;;;;;5093792;28;19912;-79
2022/06/15 04:27:55;;;;;;;;;;;13.00;99.90;;;;;;5093717;28;20435;-79
2022/06/15 04:30:20;;;;;;;;;;;13.10;99.90;;;;;;5093748;28;19914;-79
2022/06/15 04:32:46;;;;;;;;;;;13.10;99.90;;;;;;5093748;28;19908;-79
2022/06/15 04:35:11;;;;;;;;;;;13.20;99.90;;;;;;5093748;28;19915;-79
2022/06/15 04:37:37;;;;;;;;;;;13.30;99.90;;;;;;5093726;28;19912;-79
2022/06/15 04:40:04;;;;;;;;;;;13.40;99.90;;;;;;5092760;28;19915;-79
2022/06/15 04:42:29;;;;;;;;;;;13.60;99.90;;;;;;5075458;28;19918;-79
2022/06/15 04:44:55;;;;;;;;;;;13.60;99.90;;;;;;5093433;28;20006;-79
2022/06/15 04:47:20;;;;;;;;;;;13.70;99.90;;;;;;5093481;28;20424;-80
2022/06/15 04:49:46;;;;;;;;;;;;;;;;;;5109113;28;19961;-79
2022/06/15 04:52:12;;;;;;;;;;;14.00;99.90;;;;;;5093406;28;19908;-79
2022/06/15 04:54:37;;;;;;;;;;;14.10;99.90;;;;;;5109034;28;19912;-80
2022/06/15 04:57:03;;;;;;;;;;;14.20;99.90;;;;;;5092992;28;19961;-79
2022/06/15 04:59:28;;;;;;;;;;;14.40;99.90;;;;;;5093204;28;19908;-79
2022/06/15 05:01:55;;;;;;;;;;;14.70;99.90;;;;;;5109361;28;20743;-79
2022/06/15 05:04:21;;;;;;;;;;;14.70;99.90;;;;;;5074760;28;19970;-80
2022/06/15 05:06:47;;;;;;;;;;;15.20;99.90;;;;;;5075049;28;19912;-79
2022/06/15 05:09:14;;;;;;;;;;;15.20;99.90;;;;;;5093129;28;19911;-79
2022/06/15 05:11:39;;;;;;;;;;;15.40;99.90;;;;;;5076960;28;19909;-79
2022/06/15 05:14:05;;;;;;;;;;;15.50;99.90;;;;;;5075070;28;19931;-78
2022/06/15 05:16:31;;;;;;;;;;;15.70;99.90;;;;;;5092786;28;19919;-78
2022/06/15 05:18:56;;;;;;;;;;;15.80;99.90;;;;;;5095654;28;20385;-78
2022/06/15 05:21:22;;;;;;;;;;;16.00;99.90;;;;;;5095516;28;19908;-79
2022/06/15 05:23:47;;;;;;;;;;;16.30;99.90;;;;;;5092797;28;19963;-80
2022/06/15 05:26:13;;;;;;;;;;;16.40;99.90;;;;;;5093078;28;19915;-79
2022/06/15 05:28:41;;;;;;;;;;;16.60;99.90;;;;;;5074440;28;20003;-80
2022/06/15 05:31:10;;;;;;;;;;;16.60;99.90;;;;;;5092834;28;19935;-80
2022/06/15 05:33:36;;;;;;;;;;;16.70;99.90;;;;;;5092907;28;19908;-78
2022/06/15 05:36:03;;;;;;;;;;;16.80;99.90;;;;;;5092703;28;19919;-79
2022/06/15 05:38:28;;;;;;;;;;;17.00;99.90;;;;;;5074483;28;20424;-79
2022/06/15 05:40:54;;;;;;;;;;;17.10;99.90;;;;;;5074538;28;20054;-80
2022/06/15 05:43:19;;;;;;;;;;;17.20;99.90;;;;;;5092539;28;20018;-80
2022/06/15 05:45:45;;;;;;;;;;;17.20;99.90;;;;;;5092456;28;19961;-79
2022/06/15 05:48:10;;;;;;;;;;;17.30;99.90;;;;;;5092311;28;19930;-79
2022/06/15 05:50:36;;;;;;;;;;;17.30;99.90;;;;;;5092353;28;20267;-79
2022/06/15 05:53:01;;;;;;;;;;;17.40;99.90;;;;;;5092304;28;19918;-80
2022/06/15 05:55:27;;;;;;;;;;;17.60;99.90;;;;;;5108233;28;19919;-79
2022/06/15 05:57:53;;;;;;;;;;;17.70;99.90;;;;;;5092250;28;20000;-79
2022/06/15 06:00:19;;;;;;;;;;;17.90;99.90;;;;;;5092281;28;19912;-79
2022/06/15 06:02:44;;;;;;;;;;;18.10;99.90;;;;;;5092421;28;19934;-79
2022/06/15 06:05:10;;;;;;;;;;;18.30;99.90;;;;;;5092488;28;20355;-79
2022/06/15 06:07:36;;;;;;;;;;;18.60;99.90;;;;;;5108172;28;19958;-79
2022/06/15 06:10:02;;;;;;;;;;;18.70;99.90;;;;;;5108108;28;20256;-82
2022/06/15 06:12:28;;;;;;;;;;;18.80;99.90;;;;;;5074316;28;20359;-79
2022/06/15 06:14:53;;;;;;;;;;;;;;;;;;5092250;28;19966;-79
2022/06/15 06:17:19;;;;;;;;;;;19.10;97.80;;;;;;5092044;28;19965;-80
2022/06/15 06:19:45;;;;;;;;;;;19.30;97.60;;;;;;5074298;28;19912;-79
2022/06/15 06:22:10;;;;;;;;;;;19.50;96.00;;;;;;5074017;28;20276;-79
2022/06/15 06:24:36;;;;;;;;;;;19.70;96.20;;;;;;5092020;28;19923;-79
2022/06/15 06:27:06;;;;;;;;;;;19.80;95.60;;;;;;5108326;28;19908;-79
2022/06/15 06:29:31;;;;;;;;;;;20.00;94.90;;;;;;5073370;28;19908;-80
2022/06/15 06:31:58;;;;;;;;;;;20.10;92.60;;;;;;5091491;28;19916;-79
2022/06/15 06:34:23;;;;;;;;;;;20.30;91.50;;;;;;5092265;28;19908;-79
2022/06/15 06:36:49;;;;;;;;;;;20.50;91.90;;;;;;5092237;28;20636;-79
2022/06/15 06:39:17;;;;;;;;;;;20.70;92.20;;;;;;5074065;28;19912;-79
2022/06/15 06:41:43;;;;;;;;;;;20.90;92.60;;;;;;5092261;28;19908;-79
2022/06/15 06:44:10;;;;;;;;;;;21.00;91.60;;;;;;5092184;28;19969;-79
2022/06/15 06:46:35;;;;;;;;;;;21.10;91.00;;;;;;5091857;28;19952;-79
2022/06/15 06:49:02;;;;;;;;;;;21.20;90.80;;;;;;5107448;28;19958;-80
2022/06/15 06:51:28;;;;;;;;;;;21.20;90.30;;;;;;5091992;28;19908;-79
2022/06/15 06:53:53;;;;;;;;;;;21.20;91.70;;;;;;5091799;28;19909;-78
2022/06/15 06:56:19;;;;;;;;;;;21.30;91.70;;;;;;5073529;28;20363;-79
2022/06/15 06:58:44;;;;;;;;;;;21.50;90.80;;;;;;5091450;28;19920;-79
2022/06/15 07:01:10;;;;;;;;;;;21.60;90.40;;;;;;5091728;28;19909;-79
2022/06/15 07:03:35;;;;;;;;;;;21.60;90.50;;;;;;5109970;28;19952;-81
2022/06/15 07:06:02;;;;;;;;;;;21.70;90.90;;;;;;5077363;28;19916;-79
2022/06/15 07:08:28;;;;;;;;;;;21.80;90.40;;;;;;5094922;28;19999;-79
2022/06/15 07:10:54;;;;;;;;;;;21.90;90.30;;;;;;5077163;28;19991;-79
2022/06/15 07:13:19;;;;;;;;;;;22.00;90.80;;;;;;5095116;28;19908;-79
2022/06/15 07:15:45;;;;;;;;;;;22.20;89.60;;;;;;5095140;28;20308;-79
2022/06/15 07:18:10;;;;;;;;;;;22.20;89.30;;;;;;5095312;28;19930;-79
2022/06/15 07:20:36;;;;;;;;;;;22.20;87.80;;;;;;5095253;28;20380;-79
2022/06/15 07:23:01;;;;;;;;;;;22.30;89.80;;;;;;5110875;28;19958;-79
2022/06/15 07:25:27;;;;;;;;;;;22.40;88.00;;;;;;5095230;28;19916;-79
2022/06/15 07:27:53;;;;;;;;;;;22.50;88.40;;;;;;5076855;28;19908;-79
2022/06/15 07:30:20;;;;;;;;;;;22.60;87.40;;;;;;5095101;28;19963;-79
2022/06/15 07:32:46;;;;;;;;;;;22.70;87.30;;;;;;5076798;28;20271;-79
2022/06/15 07:35:16;;;;;;;;;;;22.80;90.00;;;;;;5095154;28;19909;-79
2022/06/15 07:37:42;;;;;;;;;;;22.80;86.90;;;;;;5094750;28;19915;-79
2022/06/15 07:40:08;;;;;;;;;;;22.90;87.50;;;;;;5095036;28;19912;-79
2022/06/15 07:42:33;;;;;;;;;;;22.90;86.20;;;;;;5076634;28;19916;-79
2022/06/15 07:44:59;;;;;;;;;;;22.90;86.40;;;;;;5076579;28;19963;-79
2022/06/15 07:50:09;;;;;;;;;;;23.10;88.50;;;;;;5094824;28;19919;-79
2022/06/15 07:52:36;;;;;;;;;;;23.20;87.30;;;;;;5094798;28;20291;-79
2022/06/15 07:55:05;;;;;;;;;;;23.20;84.20;;;;;;5093846;28;20426;-79
2022/06/15 07:57:31;;;;;;;;;;;23.10;86.50;;;;;;5076118;28;19920;-79
2022/06/15 07:59:56;;;;;;;;;;;23.30;88.00;;;;;;5094607;28;19919;-79
2022/06/15 08:02:22;;;;;;;;;;;23.50;88.60;;;;;;5110289;28;19915;-79
2022/06/15 08:04:47;;;;;;;;;;;23.70;85.30;;;;;;5094428;28;20340;-79
2022/06/15 08:07:14;;;;;;;;;;;23.80;85.10;;;;;;5094326;28;19912;-80
2022/06/15 08:09:40;;;;;;;;;;;23.90;81.80;;;;;;5094458;28;19943;-79
2022/06/15 08:12:12;;;;;;;;;;;24.00;83.40;;;;;;5094081;28;19908;-79
2022/06/15 08:14:42;;;;;;;;;;;24.00;83.40;;;;;;5093859;28;19938;-77
2022/06/15 08:17:10;;;;;;;;;;;24.10;82.60;;;;;;5094050;28;20002;-77
2022/06/15 08:19:36;;;;;;;;;;;;;;;;;;5094300;28;19912;-77
2022/06/15 08:22:02;;;;;;;;;;;;;;;;;;5076037;28;19931;-77
2022/06/15 08:24:28;;;;;;;;;;;;;;;;;;5093975;28;19916;-77
2022/06/15 08:26:54;;;;;;;;;;;;;;;;;;5094161;28;19958;-76
2022/06/15 08:29:20;;;;;;;;;;;;;;;;;;5093940;28;19943;-76
2022/06/15 08:31:46;;;;;;;;;;;;;;;;;;5094051;28;19912;-77
2022/06/15 08:34:11;;;;;;;;;;;;;;;;;;5093912;28;19919;-77
2022/06/15 08:36:37;;;;;;;;;;;;;;;;;;5093889;28;19908;-75
2022/06/15 08:39:04;;;;;;;;;;;;;;;;;;5093933;28;19908;-76
2022/06/15 08:41:31;;;;;;;;;;;;;;;;;;5093920;28;19939;-76
2022/06/15 08:44:15;;;;;;;;;;;24.80;99.90;;;;;;5093537;28;19926;-76
2022/06/15 08:46:55;;;;;;;;;;;24.70;91.50;;;;;;5093786;28;19912;-75
2022/06/15 08:49:20;;;;;;;;;;;23.70;91.90;;;;;;5093609;28;19908;-76
2022/06/15 08:51:49;;;;;;;;;;;24.60;90.40;;;;;;5093783;28;19912;-77
2022/06/15 08:54:18;;;;;;;;;;;24.70;91.90;;;;;;5077594;28;20313;-79
2022/06/15 08:56:45;;;;;;;;;;;24.70;82.30;;;;;;5111849;28;20006;-78
2022/06/15 08:59:11;;;;;;;;;;;24.70;82.20;;;;;;5113472;28;20390;-77
2022/06/15 09:01:42;;;;;;;;;;;24.90;84.60;;;;;;5114031;28;19907;-76
2022/06/15 09:04:10;;;;;;;;;;;;;;;;;;5113665;28;19923;-79
2022/06/15 09:06:36;;;;;;;;;;;;;;;;;;5113626;28;20327;-79
2022/06/15 09:09:17;;;;;;;;;;;25.00;99.90;;;;;;5113372;28;19930;-78
2022/06/15 09:15:04;;;;;;;;;;;25.30;99.90;;;;;;5114127;28;19956;-78
2022/06/15 09:17:30;;;;;;;;;;;25.40;99.90;;;;;;5113247;28;19912;-77
2022/06/15 09:20:01;;;;;;;;;;;25.50;99.90;;;;;;5113381;28;19907;-77
2022/06/15 09:22:39;;;;;;;;;;;25.40;75.50;;;;;;5113232;28;19904;-75
2022/06/15 09:25:08;;;;;;;;;;;25.40;75.70;;;;;;5113064;28;19919;-76
2022/06/15 09:27:37;;;;;;;;;;;25.30;75.60;;;;;;5113279;28;20270;-76
2022/06/15 09:30:06;;;;;;;;;;;25.30;75.00;;;;;;5113206;28;19907;-75
2022/06/15 09:32:43;;;;;;;;;;;25.20;75.20;;;;;;5112913;28;19930;-76
2022/06/15 09:35:16;;;;;;;;;;;25.30;77.30;;;;;;5112979;28;19998;-75
2022/06/15 09:37:44;;;;;;;;;;;25.30;75.80;;;;;;5112869;28;19907;-75
2022/06/15 09:40:09;;;;;;;;;;;25.20;77.10;;;;;;5113289;28;19911;-75
2022/06/15 09:42:41;;;;;;;;;;;25.30;76.50;;;;;;5113280;28;19915;-75
2022/06/15 09:45:09;;;;;;;;;;;25.40;75.50;;;;;;5113295;28;19916;-75
2022/06/15 09:47:41;;;;;;;;;;;25.50;75.50;;;;;;5113071;28;19912;-75
2022/06/15 09:50:07;;;;;;;;;;;25.50;74.70;;;;;;5113042;28;19908;-75
2022/06/15 09:52:55;;;;;;;;;;;25.40;74.60;;;;;;5094840;28;19930;-76
2022/06/15 09:55:29;;;;;;;;;;;25.40;76.40;;;;;;5113149;28;20260;-75
2022/06/15 09:57:55;;;;;;;;;;;25.30;75.60;;;;;;5112933;28;19920;-75
2022/06/15 10:00:21;;;;;;;;;;;25.40;76.70;;;;;;5112928;28;19972;-75
2022/06/15 10:02:53;;;;;;;;;;;25.50;77.00;;;;;;5112775;28;20327;-75
2022/06/15 10:05:22;;;;;;;;;;;25.60;74.80;;;;;;5113113;28;20262;-74
2022/06/15 10:07:48;;;;;;;;;;;25.70;75.60;;;;;;5112804;28;19912;-75
2022/06/15 10:10:14;;;;;;;;;;;25.80;75.80;;;;;;5112761;28;19931;-75
2022/06/15 10:12:58;;;;;;;;;;;25.90;75.70;;;;;;5112913;28;20248;-75
2022/06/15 10:15:26;;;;;;;;;;;26.10;76.40;;;;;;5112309;28;20012;-75
2022/06/15 10:17:54;;;;;;;;;;;26.30;75.20;;;;;;5112334;28;20295;-75
2022/06/15 10:20:20;;;;;;;;;;;26.40;74.30;;;;;;5112609;28;19911;-75
2022/06/15 10:22:51;;;;;;;;;;;26.40;74.10;;;;;;5094250;28;19972;-75
2022/06/15 10:25:17;;;;;;;;;;;26.20;73.40;;;;;;5112608;28;20014;-75
2022/06/15 10:27:43;;;;;;;;;;;26.00;72.20;;;;;;5112385;28;19915;-75
2022/06/15 10:30:12;;;;;;;;;;;25.90;73.20;;;;;;5093747;28;19908;-75
2022/06/15 10:32:39;;;;;;;;;;;25.80;73.10;;;;;;5112366;28;19939;-75
2022/06/15 10:35:14;;;;;;;;;;;25.70;75.00;;;;;;5111660;28;19908;-75
2022/06/15 10:37:43;;;;;;;;;;;25.90;74.20;;;;;;5110523;28;19961;-74
2022/06/15 10:40:24;;;;;;;;;;;25.90;73.10;;;;;;5116113;28;20320;-75
2022/06/15 10:42:53;;;;;;;;;;;25.70;73.20;;;;;;5116167;28;19908;-74
2022/06/15 10:45:19;;;;;;;;;;;25.60;74.00;;;;;;5116091;28;19911;-74
2022/06/15 10:47:50;;;;;;;;;;;25.50;72.60;;;;;;5116035;28;20419;-75
2022/06/15 10:50:22;;;;;;;;;;;25.60;75.60;;;;;;5115918;28;19912;-75
2022/06/15 10:52:53;;;;;;;;;;;25.60;72.70;;;;;;5116202;28;19950;-75
2022/06/15 11:04:19;;;;;;;;;;;26.70;71.50;;;;;;5116099;28;19922;-75
2022/06/15 11:06:49;;;;;;;;;;;26.60;70.70;;;;;;5115814;28;20266;-75
2022/06/15 11:09:26;;;;;;;;;;;26.60;70.00;;;;;;5115921;28;19961;-75
2022/06/15 11:11:53;;;;;;;;;;;26.50;70.50;;;;;;5115940;28;19908;-75
2022/06/15 11:14:24;;;;;;;;;;;26.40;72.40;;;;;;5097436;28;20620;-76
2022/06/15 11:19:52;;;;;;;;;;;26.60;72.40;;;;;;5072789;28;19958;-76
2022/06/15 11:22:19;;;;;;;;;;;26.60;72.90;;;;;;5107077;28;19915;-76
2022/06/15 11:24:50;;;;;;;;;;;26.50;74.00;;;;;;5115350;28;19919;-76
2022/06/15 11:27:28;;;;;;;;;;;26.50;73.30;;;;;;5115487;28;19911;-76
2022/06/15 11:30:06;;;;;;;;;;;26.60;73.10;;;;;;5097253;28;19915;-77
2022/06/15 11:32:38;;;;;;;;;;;26.70;72.80;;;;;;5115561;28;20423;-77
2022/06/15 11:35:12;;;;;;;;;;;26.70;73.30;;;;;;5115651;28;19931;-77
2022/06/15 11:37:44;;;;;;;;;;;26.80;73.30;;;;;;5115081;28;19911;-77
2022/06/15 11:40:18;;;;;;;;;;;27.00;73.30;;;;;;5115158;28;19915;-77
2022/06/15 11:42:49;;;;;;;;;;;27.20;73.90;;;;;;5096799;28;20327;-78
2022/06/15 11:45:15;;;;;;;;;;;27.40;74.50;;;;;;5115141;28;19998;-76
2022/06/15 11:47:49;;;;;;;;;;;27.40;75.80;;;;;;5096899;28;20006;-78
2022/06/15 11:50:24;;;;;;;;;;;27.50;76.30;;;;;;5114453;28;19908;-78
2022/06/15 11:52:49;;;;;;;;;;;27.40;73.80;;;;;;5114874;28;19915;-78
2022/06/15 11:55:25;;;;;;;;;;;27.40;74.40;;;;;;5115007;28;19908;-78
2022/06/15 11:58:09;;;;;;;;;;;27.40;73.00;;;;;;5114623;28;19959;-78
2022/06/15 12:00:47;;;;;;;;;;;27.50;73.80;;;;;;5114813;28;19912;-78
2022/06/15 12:03:13;;;;;;;;;;;27.60;73.60;;;;;;5096351;28;19963;-78
2022/06/15 12:05:42;;;;;;;;;;;27.60;76.60;;;;;;5114846;28;20322;-78
2022/06/15 12:08:07;;;;;;;;;;;27.60;75.30;;;;;;5114430;28;19904;-78
2022/06/15 12:10:49;;;;;;;;;;;27.60;74.50;;;;;;5114654;28;19965;-78
2022/06/15 12:13:23;;;;;;;;;;;27.50;73.60;;;;;;5114667;28;19911;-78
2022/06/15 12:15:49;;;;;;;;;;;27.40;74.40;;;;;;5095951;28;19908;-78
2022/06/15 12:18:17;;;;;;;;;;;27.40;81.00;;;;;;5096019;28;19911;-78
2022/06/15 12:20:51;;;;;;;;;;;27.30;87.20;;;;;;5096143;28;19911;-78
2022/06/15 12:23:35;;;;;;;;;;;27.20;91.70;;;;;;5096290;28;20255;-78
2022/06/15 12:26:04;;;;;;;;;;;27.00;93.60;;;;;;5096113;28;19912;-77
2022/06/15 12:28:35;;;;;;;;;;;27.30;93.90;;;;;;5095792;28;19912;-78
2022/06/15 12:31:10;;;;;;;;;;;27.30;95.30;;;;;;5114488;28;19930;-78
2022/06/15 12:34:05;;;;;;;;;;;27.00;71.00;;;;;;5096096;28;19968;-78
2022/06/15 12:36:43;;;;;;;;;;;26.80;73.40;;;;;;5041698;28;20032;-78
2022/06/15 12:39:24;;;;;;;;;;;26.50;72.60;;;;;;5114263;28;19911;-77
2022/06/15 12:44:38;;;;;;;;;;;26.50;74.30;;;;;;5114382;28;19927;-77
2022/06/15 12:47:05;;;;;;;;;;;26.60;74.20;;;;;;5114115;28;19919;-78
2022/06/15 12:49:34;;;;;;;;;;;26.90;73.00;;;;;;5114147;28;19955;-78
2022/06/15 12:52:05;;;;;;;;;;;27.00;73.70;;;;;;5095795;28;20359;-77
2022/06/15 12:54:34;;;;;;;;;;;27.00;74.30;;;;;;5095838;28;19912;-78
2022/06/15 12:57:18;;;;;;;;;;;27.10;75.10;;;;;;5113792;28;20266;-78
2022/06/15 12:59:47;;;;;;;;;;;27.20;74.50;;;;;;5113898;28;19912;-78
2022/06/15 13:02:19;;;;;;;;;;;27.20;73.00;;;;;;5113351;28;20377;-78
2022/06/15 13:04:47;;;;;;;;;;;27.30;72.60;;;;;;5113817;28;20012;-78
2022/06/15 13:07:18;;;;;;;;;;;27.20;71.70;;;;;;5095508;28;19946;-77
2022/06/15 13:10:03;;;;;;;;;;;27.20;72.50;;;;;;5095611;28;20086;-78
2022/06/15 13:12:38;;;;;;;;;;;27.40;73.30;;;;;;5113535;28;19939;-77
2022/06/15 13:15:03;;;;;;;;;;;27.50;73.50;;;;;;5095457;28;19908;-78
2022/06/15 13:18:06;;;;;;;;;;;27.50;71.70;;;;;;5095203;28;20307;-77
2022/06/15 13:20:32;;;;;;;;;;;27.40;71.10;;;;;;5095163;28;20000;-78
2022/06/15 13:22:57;;;;;;;;;;;27.10;70.80;;;;;;5112649;28;20342;-78
2022/06/15 13:25:23;;;;;;;;;;;27.00;71.50;;;;;;5112833;28;19919;-78
2022/06/15 13:27:54;;;;;;;;;;;27.10;72.00;;;;;;5113393;28;19908;-77
2022/06/15 13:30:25;;;;;;;;;;;27.20;71.40;;;;;;5113580;28;19908;-78
2022/06/15 13:32:54;;;;;;;;;;;27.20;72.50;;;;;;5095343;28;19918;-77
2022/06/15 13:35:22;;;;;;;;;;;27.20;72.10;;;;;;5113377;28;19951;-78
2022/06/15 13:38:15;;;;;;;;;;;27.30;71.70;;;;;;5113438;28;20359;-78
2022/06/15 13:40:40;;;;;;;;;;;;;;;;;;5091715;28;19907;-78
2022/06/15 13:43:07;;;;;;;;;;;27.60;70.00;;;;;;5094791;28;19964;-78
2022/06/15 13:45:32;;;;;;;;;;;27.70;71.80;;;;;;5113076;28;19966;-78
2022/06/15 13:48:04;;;;;;;;;;;27.70;70.90;;;;;;5094749;28;19939;-78
2022/06/15 13:50:34;;;;;;;;;;;27.60;70.50;;;;;;5113194;28;19908;-78
2022/06/15 13:53:01;;;;;;;;;;;27.60;71.20;;;;;;5094900;28;20316;-78
2022/06/15 13:55:34;;;;;;;;;;;27.60;71.30;;;;;;5094356;28;19908;-77
2022/06/15 13:58:09;;;;;;;;;;;27.50;70.70;;;;;;5112506;28;19919;-78
2022/06/15 14:00:46;;;;;;;;;;;27.30;70.20;;;;;;5112820;28;19915;-78
2022/06/15 14:03:15;;;;;;;;;;;27.20;71.60;;;;;;5094667;28;19919;-77
2022/06/15 14:05:40;;;;;;;;;;;27.20;71.50;;;;;;5094723;28;19907;-78
2022/06/15 14:08:17;;;;;;;;;;;27.20;71.20;;;;;;5112871;28;19957;-78
2022/06/15 14:10:48;;;;;;;;;;;27.30;71.60;;;;;;5112771;28;19970;-78
2022/06/15 14:13:33;;;;;;;;;;;27.30;70.80;;;;;;5116316;28;19912;-78
2022/06/15 14:16:07;;;;;;;;;;;27.40;71.90;;;;;;5116175;28;19911;-78
2022/06/15 14:18:45;;;;;;;;;;;27.40;71.70;;;;;;5098396;28;20267;-77
2022/06/15 14:21:21;;;;;;;;;;;27.40;70.90;;;;;;5116876;28;19908;-78
2022/06/15 14:23:47;;;;;;;;;;;27.40;70.60;;;;;;5094667;28;19973;-78
2022/06/15 14:26:14;;;;;;;;;;;27.30;70.40;;;;;;5094890;28;19914;-78
2022/06/15 14:28:48;;;;;;;;;;;27.30;70.30;;;;;;5115626;28;19950;-77
2022/06/15 14:31:16;;;;;;;;;;;27.20;70.20;;;;;;5116236;28;20010;-78
2022/06/15 14:33:42;;;;;;;;;;;27.30;69.90;;;;;;5116613;28;19947;-76
2022/06/15 14:36:13;;;;;;;;;;;27.40;69.90;;;;;;5116565;28;20385;-76
2022/06/15 14:38:39;;;;;;;;;;;27.50;69.90;;;;;;5116443;28;19911;-76
2022/06/15 14:41:16;;;;;;;;;;;27.60;70.00;;;;;;5116684;28;19912;-76
2022/06/15 14:43:42;;;;;;;;;;;27.60;70.20;;;;;;5116418;28;19912;-77
2022/06/15 14:46:12;;;;;;;;;;;27.70;69.80;;;;;;5097884;28;19915;-77
2022/06/15 14:48:38;;;;;;;;;;;27.70;68.60;;;;;;5116062;28;19911;-77
2022/06/15 14:51:06;;;;;;;;;;;27.70;69.20;;;;;;5116626;28;19946;-78
2022/06/15 14:53:31;;;;;;;;;;;27.70;69.60;;;;;;5116661;28;20314;-77
2022/06/15 14:56:00;;;;;;;;;;;27.60;70.60;;;;;;5116388;28;20003;-77
2022/06/15 14:58:26;;;;;;;;;;;27.60;69.70;;;;;;5116093;28;19923;-77
2022/06/15 15:01:05;;;;;;;;;;;27.50;69.50;;;;;;5097925;28;20014;-76
2022/06/15 15:03:34;;;;;;;;;;;27.40;70.80;;;;;;5116148;28;19919;-77
2022/06/15 15:06:04;;;;;;;;;;;27.40;70.30;;;;;;5115696;28;19955;-80
2022/06/15 15:08:36;;;;;;;;;;;27.50;70.60;;;;;;5115575;28;20359;-81
2022/06/15 15:11:03;;;;;;;;;;;27.50;70.60;;;;;;5097500;28;19964;-81
2022/06/15 15:13:38;;;;;;;;;;;27.40;69.30;;;;;;5097050;28;19994;-81